KTHA/THA METAR and TAF weather

Enter ICAO airport designator
Station Type Date Time Source
KTHA METAR 2022/01/26 07:15 UTC NOAA

KTHA 260715Z AUTO 35010KT 10SM SCT024 M06/M10 A3028 RMK A01


Station Type Date Time Source
KTHA Decoded METAR 2022/01/26 07:15 UTC NOAA

Station name not available
Jan 26, 2022 - 02:15 AM EST / 2022.01.26 0715 UTC
Wind: from the N (350 degrees) at 12 MPH (10 KT):0
Visibility: 10 mile(s):0
Sky conditions: partly cloudy
Temperature: 21 F (-6 C)
Windchill: 8 F (-13 C):1
Dew Point: 14 F (-10 C)
Relative Humidity: 73%
Pressure (altimeter): 30.28 in. Hg (1025 hPa)
ob: KTHA 260715Z AUTO 35010KT 10SM SCT024 M06/M10 A3028 RMK A01
cycle: 7

Station Type Date Time Source
KTHA TAF UTC NOAA

Error!

Example: see airport list